N737GG KFLL-KORF
Flight info
| Callsign | N737GG |
|---|---|
| Flight time | 1h 45m |
| Altitude | 37000 |
| Route | FEALX2 ETECK GRUBR Y299 SEELO GARIC RREGG KOHLS1 |
| Aircraft | B738/M-SDE2E3FGHIRWXY/LB1 |
Departure
| Time | 2026-05-03 22:26 |
|---|---|
| Airport | Fort Lauderdale Hollywood International Airport (KFLL) |
Arrival
| Time | 2026-05-04 00:12 |
|---|---|
| Airport | Norfolk International Airport (KORF) |
| Time | Latitude | Longitude | Altitude | Speed | Heading |
|---|---|---|---|---|---|
| 2026-05-03 21:50 | 26.07930 | -80.14826 | 21 ft | 0 kts | 338° |
| 2026-05-03 21:59 | 26.07921 | -80.14822 | 21 ft | 4 kts | 322° |
| 2026-05-03 21:59 | 26.07912 | -80.14801 | 23 ft | 4 kts | 264° |
| 2026-05-03 21:59 | 26.07914 | -80.14786 | 23 ft | 0 kts | 268° |
| 2026-05-03 22:01 | 26.07912 | -80.14797 | 32 ft | 6 kts | 257° |
| 2026-05-03 22:01 | 26.07867 | -80.14824 | 20 ft | 5 kts | 185° |
| 2026-05-03 22:06 | 26.07856 | -80.14825 | 20 ft | 8 kts | 181° |
| 2026-05-03 22:06 | 26.07810 | -80.14903 | 20 ft | 19 kts | 271° |
| 2026-05-03 22:07 | 26.07809 | -80.15064 | 19 ft | 21 kts | 270° |
| 2026-05-03 22:07 | 26.07811 | -80.15227 | 17 ft | 21 kts | 271° |
| 2026-05-03 22:07 | 26.07812 | -80.15385 | 16 ft | 20 kts | 271° |
| 2026-05-03 22:07 | 26.07817 | -80.15538 | 18 ft | 19 kts | 271° |
| 2026-05-03 22:08 | 26.07814 | -80.15686 | 19 ft | 19 kts | 269° |
| 2026-05-03 22:08 | 26.07813 | -80.15829 | 20 ft | 18 kts | 270° |
| 2026-05-03 22:08 | 26.07814 | -80.15967 | 22 ft | 18 kts | 271° |
| 2026-05-03 22:08 | 26.07816 | -80.16120 | 24 ft | 25 kts | 270° |
| 2026-05-03 22:09 | 26.07813 | -80.16324 | 23 ft | 26 kts | 264° |
| 2026-05-03 22:09 | 26.07804 | -80.16507 | 23 ft | 19 kts | 270° |
| 2026-05-03 22:09 | 26.07804 | -80.16549 | 23 ft | 0 kts | 270° |
| 2026-05-03 22:15 | 26.07805 | -80.16567 | 26 ft | 8 kts | 271° |
| 2026-05-03 22:15 | 26.07797 | -80.16615 | 22 ft | 0 kts | 247° |
| 2026-05-03 22:24 | 26.07791 | -80.16625 | 24 ft | 8 kts | 231° |
| 2026-05-03 22:25 | 26.07703 | -80.16602 | 21 ft | 17 kts | 94° |
| 2026-05-03 22:25 | 26.07696 | -80.16529 | 22 ft | 0 kts | 92° |
| 2026-05-03 22:25 | 26.07696 | -80.16518 | 22 ft | 12 kts | 90° |
| 2026-05-03 22:26 | 26.07693 | -80.16143 | 23 ft | 85 kts | 90° |
| 2026-05-03 22:26 | 26.07695 | -80.15238 | 23 ft | 146 kts | 88° |
| 2026-05-03 22:26 | 26.07665 | -80.14029 | 424 ft | 157 kts | 86° |
| 2026-05-03 22:26 | 26.07691 | -80.12782 | 1105 ft | 163 kts | 88° |
| 2026-05-03 22:27 | 26.07674 | -80.11503 | 1793 ft | 167 kts | 88° |
| 2026-05-03 22:27 | 26.07698 | -80.10103 | 2124 ft | 197 kts | 86° |
| 2026-05-03 22:27 | 26.07745 | -80.08471 | 2362 ft | 223 kts | 88° |
| 2026-05-03 22:27 | 26.07778 | -80.06673 | 2587 ft | 242 kts | 89° |
| 2026-05-03 22:28 | 26.07801 | -80.04728 | 2796 ft | 262 kts | 89° |
| 2026-05-03 22:28 | 26.07820 | -80.02630 | 3243 ft | 276 kts | 89° |
| 2026-05-03 22:28 | 26.08064 | -80.00515 | 3789 ft | 277 kts | 66° |
| 2026-05-03 22:28 | 26.09089 | -79.98690 | 4401 ft | 284 kts | 52° |
| 2026-05-03 22:29 | 26.10275 | -79.96914 | 5125 ft | 289 kts | 52° |
| 2026-05-03 22:29 | 26.11488 | -79.95101 | 5864 ft | 293 kts | 52° |
| 2026-05-03 22:29 | 26.12293 | -79.93887 | 6370 ft | 296 kts | 52° |
| 2026-05-03 22:29 | 26.13927 | -79.91403 | 6908 ft | 299 kts | 52° |
| 2026-05-03 22:30 | 26.14741 | -79.90159 | 7001 ft | 299 kts | 52° |
| 2026-05-03 22:30 | 26.15963 | -79.88291 | 6994 ft | 299 kts | 52° |
| 2026-05-03 22:30 | 26.17202 | -79.86396 | 7282 ft | 305 kts | 52° |
| 2026-05-03 22:30 | 26.18456 | -79.84474 | 8101 ft | 307 kts | 52° |
| 2026-05-03 22:31 | 26.19711 | -79.82550 | 8933 ft | 309 kts | 52° |
| 2026-05-03 22:31 | 26.20978 | -79.80608 | 9779 ft | 312 kts | 52° |
| 2026-05-03 22:31 | 26.22273 | -79.78624 | 10390 ft | 324 kts | 52° |
| 2026-05-03 22:31 | 26.23647 | -79.76518 | 10619 ft | 348 kts | 52° |
| 2026-05-03 22:32 | 26.25100 | -79.74289 | 11188 ft | 358 kts | 52° |
| 2026-05-03 22:32 | 26.26571 | -79.72026 | 11938 ft | 362 kts | 52° |
| 2026-05-03 22:32 | 26.28061 | -79.69736 | 12627 ft | 367 kts | 52° |
| 2026-05-03 22:32 | 26.29579 | -79.67438 | 12949 ft | 369 kts | 50° |
| 2026-05-03 22:33 | 26.31279 | -79.65287 | 12987 ft | 370 kts | 44° |
| 2026-05-03 22:33 | 26.33079 | -79.63253 | 13002 ft | 368 kts | 43° |
| 2026-05-03 22:33 | 26.34904 | -79.61242 | 13012 ft | 369 kts | 42° |
| 2026-05-03 22:33 | 26.36719 | -79.59230 | 13432 ft | 377 kts | 43° |
| 2026-05-03 22:34 | 26.38573 | -79.57148 | 14289 ft | 377 kts | 43° |
| 2026-05-03 22:34 | 26.40401 | -79.55069 | 15057 ft | 380 kts | 43° |
| 2026-05-03 22:34 | 26.42256 | -79.52944 | 15751 ft | 385 kts | 43° |
| 2026-05-03 22:34 | 26.44144 | -79.50773 | 16448 ft | 391 kts | 43° |
| 2026-05-03 22:35 | 26.46043 | -79.48582 | 17150 ft | 396 kts | 43° |
| 2026-05-03 22:35 | 26.47971 | -79.46356 | 17865 ft | 401 kts | 43° |
| 2026-05-03 22:35 | 26.49915 | -79.44112 | 18445 ft | 408 kts | 43° |
| 2026-05-03 22:35 | 26.51914 | -79.41803 | 19008 ft | 414 kts | 43° |
| 2026-05-03 22:36 | 26.53926 | -79.39478 | 19651 ft | 416 kts | 43° |
| 2026-05-03 22:36 | 26.56033 | -79.37254 | 20225 ft | 418 kts | 33° |
| 2026-05-03 22:36 | 26.58462 | -79.35462 | 20805 ft | 420 kts | 27° |
| 2026-05-03 22:36 | 26.60985 | -79.33788 | 21385 ft | 424 kts | 26° |
| 2026-05-03 22:37 | 26.63549 | -79.32130 | 21945 ft | 428 kts | 25° |
| 2026-05-03 22:37 | 26.66144 | -79.30445 | 22483 ft | 434 kts | 26° |
| 2026-05-03 22:37 | 26.68729 | -79.28741 | 23018 ft | 439 kts | 26° |
| 2026-05-03 22:37 | 26.71362 | -79.26982 | 23551 ft | 443 kts | 26° |
| 2026-05-03 22:38 | 26.74015 | -79.25190 | 23996 ft | 448 kts | 27° |
| 2026-05-03 22:38 | 26.76685 | -79.23374 | 24472 ft | 451 kts | 27° |
| 2026-05-03 22:38 | 26.79377 | -79.21538 | 24911 ft | 455 kts | 27° |
| 2026-05-03 22:38 | 26.82091 | -79.19682 | 25362 ft | 459 kts | 27° |
| 2026-05-03 22:39 | 26.84825 | -79.17813 | 25821 ft | 462 kts | 26° |
| 2026-05-03 22:39 | 26.87580 | -79.15928 | 26290 ft | 466 kts | 26° |
| 2026-05-03 22:39 | 26.90350 | -79.14033 | 26721 ft | 469 kts | 26° |
| 2026-05-03 22:39 | 26.93148 | -79.12118 | 27140 ft | 472 kts | 26° |
| 2026-05-03 22:40 | 26.95957 | -79.10199 | 27554 ft | 476 kts | 26° |
| 2026-05-03 22:40 | 26.98803 | -79.08252 | 27959 ft | 479 kts | 26° |
| 2026-05-03 22:40 | 27.01653 | -79.06296 | 28376 ft | 483 kts | 26° |
| 2026-05-03 22:40 | 27.04508 | -79.04335 | 28965 ft | 480 kts | 27° |
| 2026-05-03 22:41 | 27.07369 | -79.02368 | 29427 ft | 484 kts | 26° |
| 2026-05-03 22:41 | 27.10274 | -79.00376 | 29485 ft | 495 kts | 26° |
| 2026-05-03 22:41 | 27.13237 | -78.98347 | 29713 ft | 501 kts | 26° |
| 2026-05-03 22:41 | 27.16224 | -78.96299 | 30107 ft | 503 kts | 26° |
| 2026-05-03 22:42 | 27.19204 | -78.94244 | 30462 ft | 505 kts | 26° |
| 2026-05-03 22:42 | 27.22192 | -78.92180 | 30985 ft | 500 kts | 26° |
| 2026-05-03 22:42 | 27.25111 | -78.90159 | 31852 ft | 488 kts | 26° |
| 2026-05-03 22:42 | 27.27985 | -78.88172 | 32572 ft | 481 kts | 25° |
| 2026-05-03 22:43 | 27.30834 | -78.86211 | 32970 ft | 483 kts | 25° |
| 2026-05-03 22:43 | 27.33713 | -78.84232 | 33180 ft | 489 kts | 25° |
| 2026-05-03 22:43 | 27.36644 | -78.82213 | 33419 ft | 494 kts | 25° |
| 2026-05-03 22:43 | 27.39610 | -78.80271 | 33716 ft | 491 kts | 17° |
| 2026-05-03 22:44 | 27.42803 | -78.79167 | 33981 ft | 472 kts | 359° |
| 2026-05-03 22:44 | 27.46047 | -78.78694 | 34312 ft | 470 kts | 357° |
| 2026-05-03 22:44 | 27.49293 | -78.78269 | 34564 ft | 471 kts | 357° |
| 2026-05-03 22:44 | 27.52567 | -78.77846 | 34786 ft | 474 kts | 357° |
| 2026-05-03 22:45 | 27.55859 | -78.77408 | 35036 ft | 477 kts | 357° |
| 2026-05-03 22:45 | 27.59157 | -78.76953 | 35291 ft | 479 kts | 357° |
| 2026-05-03 22:45 | 27.62467 | -78.76482 | 35556 ft | 481 kts | 357° |
| 2026-05-03 22:45 | 27.65809 | -78.75999 | 35713 ft | 485 kts | 357° |
| 2026-05-03 22:46 | 27.69159 | -78.75508 | 35914 ft | 488 kts | 357° |
| 2026-05-03 22:46 | 27.72530 | -78.75011 | 36144 ft | 489 kts | 357° |
| 2026-05-03 22:46 | 27.75909 | -78.74511 | 36385 ft | 490 kts | 357° |
| 2026-05-03 22:46 | 27.79306 | -78.74008 | 36597 ft | 491 kts | 357° |
| 2026-05-03 22:47 | 27.82698 | -78.73508 | 36805 ft | 493 kts | 357° |
| 2026-05-03 22:47 | 27.86113 | -78.73004 | 37000 ft | 495 kts | 357° |
| 2026-05-03 22:47 | 27.89490 | -78.72507 | 37035 ft | 496 kts | 357° |
| 2026-05-03 22:48 | 27.96304 | -78.71495 | 37051 ft | 490 kts | 356° |
| 2026-05-03 22:48 | 28.03069 | -78.70490 | 37056 ft | 486 kts | 356° |
| 2026-05-03 22:49 | 28.09721 | -78.69510 | 37059 ft | 485 kts | 356° |
| 2026-05-03 22:49 | 28.16415 | -78.68526 | 37061 ft | 484 kts | 356° |
| 2026-05-03 22:50 | 28.23102 | -78.67538 | 37069 ft | 485 kts | 356° |
| 2026-05-03 22:50 | 28.29795 | -78.66544 | 37069 ft | 486 kts | 356° |
| 2026-05-03 22:51 | 28.36503 | -78.65546 | 37065 ft | 486 kts | 356° |
| 2026-05-03 22:51 | 28.43226 | -78.64546 | 37068 ft | 487 kts | 356° |
| 2026-05-03 22:52 | 28.49945 | -78.63546 | 37090 ft | 488 kts | 355° |
| 2026-05-03 22:52 | 28.56695 | -78.62540 | 37075 ft | 489 kts | 355° |
| 2026-05-03 22:53 | 28.63457 | -78.61530 | 37065 ft | 490 kts | 355° |
| 2026-05-03 22:53 | 28.70219 | -78.60518 | 37073 ft | 490 kts | 355° |
| 2026-05-03 22:54 | 28.76998 | -78.59503 | 37113 ft | 491 kts | 355° |
| 2026-05-03 22:54 | 28.83779 | -78.58488 | 37080 ft | 492 kts | 355° |
| 2026-05-03 22:55 | 28.90566 | -78.57468 | 37082 ft | 492 kts | 355° |
| 2026-05-03 22:55 | 28.97367 | -78.56446 | 37082 ft | 492 kts | 355° |
| 2026-05-03 22:56 | 29.04125 | -78.55428 | 37086 ft | 492 kts | 355° |
| 2026-05-03 22:56 | 29.10931 | -78.54404 | 37093 ft | 494 kts | 355° |
| 2026-05-03 22:57 | 29.17733 | -78.53377 | 37093 ft | 494 kts | 355° |
| 2026-05-03 22:57 | 29.24546 | -78.52347 | 37095 ft | 494 kts | 355° |
| 2026-05-03 22:58 | 29.31354 | -78.51316 | 37095 ft | 493 kts | 355° |
| 2026-05-03 22:58 | 29.38172 | -78.50284 | 37095 ft | 494 kts | 355° |
| 2026-05-03 22:59 | 29.44988 | -78.49249 | 37097 ft | 494 kts | 355° |
| 2026-05-03 22:59 | 29.51685 | -78.48736 | 37123 ft | 471 kts | 342° |
| 2026-05-03 23:00 | 29.58132 | -78.49501 | 37117 ft | 465 kts | 339° |
| 2026-05-03 23:00 | 29.64577 | -78.50374 | 37124 ft | 467 kts | 340° |
| 2026-05-03 23:01 | 29.71076 | -78.51142 | 37119 ft | 469 kts | 341° |
| 2026-05-03 23:01 | 29.77587 | -78.51848 | 37107 ft | 470 kts | 341° |
| 2026-05-03 23:02 | 29.84108 | -78.52547 | 37117 ft | 470 kts | 341° |
| 2026-05-03 23:02 | 29.90628 | -78.53252 | 37167 ft | 471 kts | 341° |
| 2026-05-03 23:03 | 29.97163 | -78.53965 | 37124 ft | 472 kts | 341° |
| 2026-05-03 23:03 | 30.03682 | -78.54676 | 37120 ft | 473 kts | 341° |
| 2026-05-03 23:04 | 30.10235 | -78.55390 | 37114 ft | 473 kts | 341° |
| 2026-05-03 23:04 | 30.16864 | -78.55767 | 37107 ft | 492 kts | 352° |
| 2026-05-03 23:05 | 30.23733 | -78.54768 | 37127 ft | 499 kts | 356° |
| 2026-05-03 23:05 | 30.30598 | -78.53653 | 37120 ft | 497 kts | 355° |
| 2026-05-03 23:06 | 30.37453 | -78.52648 | 37120 ft | 496 kts | 355° |
| 2026-05-03 23:06 | 30.44247 | -78.51667 | 37123 ft | 496 kts | 355° |
| 2026-05-03 23:07 | 30.51098 | -78.50571 | 37135 ft | 498 kts | 355° |
| 2026-05-03 23:07 | 30.57951 | -78.49440 | 37140 ft | 498 kts | 355° |
| 2026-05-03 23:08 | 30.64820 | -78.48314 | 37134 ft | 498 kts | 355° |
| 2026-05-03 23:08 | 30.71689 | -78.47197 | 37135 ft | 499 kts | 355° |
| 2026-05-03 23:09 | 30.78572 | -78.46082 | 37178 ft | 502 kts | 355° |
| 2026-05-03 23:09 | 30.82059 | -78.45521 | 37287 ft | 506 kts | 355° |
| 2026-05-03 23:09 | 30.85557 | -78.44954 | 37542 ft | 507 kts | 355° |
| 2026-05-03 23:09 | 30.89047 | -78.44384 | 37811 ft | 507 kts | 355° |
| 2026-05-03 23:10 | 30.92551 | -78.43811 | 38050 ft | 508 kts | 355° |
| 2026-05-03 23:10 | 30.99576 | -78.42666 | 38131 ft | 513 kts | 355° |
| 2026-05-03 23:11 | 31.06599 | -78.41515 | 38130 ft | 510 kts | 355° |
| 2026-05-03 23:11 | 31.13365 | -78.40399 | 38145 ft | 507 kts | 355° |
| 2026-05-03 23:12 | 31.20330 | -78.39259 | 38140 ft | 506 kts | 355° |
| 2026-05-03 23:12 | 31.27247 | -78.38126 | 38195 ft | 505 kts | 355° |
| 2026-05-03 23:13 | 31.34205 | -78.36986 | 38152 ft | 506 kts | 355° |
| 2026-05-03 23:13 | 31.41201 | -78.35835 | 38145 ft | 507 kts | 355° |
| 2026-05-03 23:14 | 31.47006 | -78.34878 | 38148 ft | 508 kts | 355° |
| 2026-05-03 23:14 | 31.54010 | -78.33722 | 38208 ft | 509 kts | 355° |
| 2026-05-03 23:15 | 31.61077 | -78.32555 | 38148 ft | 511 kts | 355° |
| 2026-05-03 23:15 | 31.68049 | -78.31400 | 38149 ft | 511 kts | 355° |
| 2026-05-03 23:16 | 31.75122 | -78.30226 | 38152 ft | 511 kts | 355° |
| 2026-05-03 23:16 | 31.82149 | -78.29058 | 38182 ft | 511 kts | 355° |
| 2026-05-03 23:17 | 31.89197 | -78.27886 | 38160 ft | 511 kts | 355° |
| 2026-05-03 23:17 | 31.96233 | -78.26713 | 38151 ft | 510 kts | 355° |
| 2026-05-03 23:18 | 32.03258 | -78.25545 | 38160 ft | 513 kts | 355° |
| 2026-05-03 23:18 | 32.10407 | -78.24483 | 38221 ft | 521 kts | 354° |
| 2026-05-03 23:19 | 32.17670 | -78.23463 | 38159 ft | 528 kts | 354° |
| 2026-05-03 23:19 | 32.24927 | -78.22415 | 38147 ft | 528 kts | 354° |
| 2026-05-03 23:20 | 32.32219 | -78.21344 | 38150 ft | 528 kts | 354° |
| 2026-05-03 23:20 | 32.39504 | -78.20273 | 38152 ft | 527 kts | 354° |
| 2026-05-03 23:21 | 32.46761 | -78.19205 | 38156 ft | 524 kts | 354° |
| 2026-05-03 23:21 | 32.53971 | -78.18146 | 38153 ft | 523 kts | 354° |
| 2026-05-03 23:22 | 32.64781 | -78.16556 | 38154 ft | 521 kts | 354° |
| 2026-05-03 23:22 | 32.71936 | -78.15500 | 38152 ft | 519 kts | 354° |
| 2026-05-03 23:23 | 32.79076 | -78.14445 | 38153 ft | 517 kts | 354° |
| 2026-05-03 23:23 | 32.86232 | -78.13387 | 38150 ft | 516 kts | 354° |
| 2026-05-03 23:24 | 32.93344 | -78.12334 | 38146 ft | 515 kts | 354° |
| 2026-05-03 23:24 | 33.00434 | -78.11282 | 38148 ft | 515 kts | 354° |
| 2026-05-03 23:25 | 33.07536 | -78.10227 | 38151 ft | 515 kts | 354° |
| 2026-05-03 23:25 | 33.14649 | -78.09168 | 38182 ft | 515 kts | 354° |
| 2026-05-03 23:26 | 33.21712 | -78.08114 | 38150 ft | 514 kts | 354° |
| 2026-05-03 23:26 | 33.28809 | -78.07052 | 38138 ft | 513 kts | 354° |
| 2026-05-03 23:27 | 33.35770 | -78.06011 | 38132 ft | 512 kts | 354° |
| 2026-05-03 23:27 | 33.42853 | -78.04950 | 38132 ft | 511 kts | 354° |
| 2026-05-03 23:28 | 33.49782 | -78.03908 | 38133 ft | 510 kts | 354° |
| 2026-05-03 23:28 | 33.56816 | -78.02850 | 38126 ft | 509 kts | 354° |
| 2026-05-03 23:29 | 33.63818 | -78.01795 | 38191 ft | 508 kts | 355° |
| 2026-05-03 23:29 | 33.70806 | -78.00742 | 38136 ft | 508 kts | 355° |
| 2026-05-03 23:30 | 33.77682 | -77.99702 | 38103 ft | 507 kts | 355° |
| 2026-05-03 23:30 | 33.84619 | -77.98652 | 38098 ft | 506 kts | 355° |
| 2026-05-03 23:31 | 33.91513 | -77.97115 | 38126 ft | 519 kts | 4° |
| 2026-05-03 23:31 | 33.98353 | -77.94711 | 38084 ft | 521 kts | 6° |
| 2026-05-03 23:32 | 34.05285 | -77.92183 | 38103 ft | 520 kts | 5° |
| 2026-05-03 23:32 | 34.12214 | -77.89742 | 38107 ft | 519 kts | 5° |
| 2026-05-03 23:33 | 34.19166 | -77.87347 | 38104 ft | 519 kts | 5° |
| 2026-05-03 23:33 | 34.26070 | -77.84974 | 38104 ft | 518 kts | 5° |
| 2026-05-03 23:34 | 34.32920 | -77.82609 | 38097 ft | 518 kts | 5° |
| 2026-05-03 23:34 | 34.39842 | -77.80212 | 38155 ft | 517 kts | 5° |
| 2026-05-03 23:35 | 34.46753 | -77.77814 | 38100 ft | 515 kts | 5° |
| 2026-05-03 23:35 | 34.53629 | -77.75422 | 38093 ft | 513 kts | 5° |
| 2026-05-03 23:36 | 34.60493 | -77.73033 | 38100 ft | 512 kts | 5° |
| 2026-05-03 23:36 | 34.67340 | -77.70647 | 38105 ft | 511 kts | 5° |
| 2026-05-03 23:37 | 34.74155 | -77.68266 | 38102 ft | 509 kts | 5° |
| 2026-05-03 23:37 | 34.80904 | -77.65905 | 38100 ft | 508 kts | 5° |
| 2026-05-03 23:38 | 34.87702 | -77.63522 | 38148 ft | 507 kts | 5° |
| 2026-05-03 23:38 | 34.94500 | -77.61139 | 37703 ft | 511 kts | 6° |
| 2026-05-03 23:39 | 34.97898 | -77.59941 | 37095 ft | 501 kts | 6° |
| 2026-05-03 23:39 | 35.01222 | -77.58764 | 36665 ft | 494 kts | 5° |
| 2026-05-03 23:39 | 35.04495 | -77.57606 | 36212 ft | 487 kts | 5° |
| 2026-05-03 23:39 | 35.07724 | -77.56471 | 35791 ft | 482 kts | 5° |
| 2026-05-03 23:40 | 35.10941 | -77.55340 | 35342 ft | 478 kts | 5° |
| 2026-05-03 23:40 | 35.14122 | -77.54210 | 34937 ft | 476 kts | 7° |
| 2026-05-03 23:40 | 35.17233 | -77.52828 | 34674 ft | 473 kts | 12° |
| 2026-05-03 23:40 | 35.20238 | -77.51236 | 34428 ft | 468 kts | 15° |
| 2026-05-03 23:41 | 35.23173 | -77.49579 | 34081 ft | 463 kts | 15° |
| 2026-05-03 23:41 | 35.26081 | -77.47921 | 33627 ft | 460 kts | 15° |
| 2026-05-03 23:41 | 35.28938 | -77.46311 | 33192 ft | 455 kts | 15° |
| 2026-05-03 23:41 | 35.31816 | -77.44716 | 32778 ft | 451 kts | 15° |
| 2026-05-03 23:42 | 35.34665 | -77.43159 | 32348 ft | 447 kts | 14° |
| 2026-05-03 23:42 | 35.37499 | -77.41625 | 31933 ft | 444 kts | 14° |
| 2026-05-03 23:42 | 35.40318 | -77.40106 | 31520 ft | 440 kts | 15° |
| 2026-05-03 23:42 | 35.43107 | -77.38606 | 31112 ft | 437 kts | 15° |
| 2026-05-03 23:43 | 35.45882 | -77.37113 | 30713 ft | 434 kts | 15° |
| 2026-05-03 23:43 | 35.48640 | -77.35628 | 30318 ft | 431 kts | 15° |
| 2026-05-03 23:43 | 35.51371 | -77.34155 | 29862 ft | 428 kts | 15° |
| 2026-05-03 23:43 | 35.54081 | -77.32691 | 29406 ft | 423 kts | 15° |
| 2026-05-03 23:44 | 35.56766 | -77.31238 | 28994 ft | 419 kts | 15° |
| 2026-05-03 23:44 | 35.59423 | -77.29799 | 28611 ft | 415 kts | 15° |
| 2026-05-03 23:44 | 35.62050 | -77.28376 | 28165 ft | 411 kts | 15° |
| 2026-05-03 23:44 | 35.64661 | -77.26961 | 27754 ft | 407 kts | 15° |
| 2026-05-03 23:45 | 35.67247 | -77.25559 | 27337 ft | 404 kts | 15° |
| 2026-05-03 23:45 | 35.69810 | -77.24168 | 26930 ft | 400 kts | 15° |
| 2026-05-03 23:45 | 35.72347 | -77.22790 | 26529 ft | 397 kts | 14° |
| 2026-05-03 23:45 | 35.74864 | -77.21423 | 26128 ft | 394 kts | 15° |
| 2026-05-03 23:46 | 35.77362 | -77.20065 | 25726 ft | 391 kts | 15° |
| 2026-05-03 23:46 | 35.79815 | -77.18731 | 25346 ft | 389 kts | 15° |
| 2026-05-03 23:46 | 35.82284 | -77.17386 | 24978 ft | 386 kts | 14° |
| 2026-05-03 23:46 | 35.84737 | -77.16049 | 24580 ft | 384 kts | 14° |
| 2026-05-03 23:47 | 35.87180 | -77.14718 | 24198 ft | 382 kts | 14° |
| 2026-05-03 23:47 | 35.89612 | -77.13391 | 23807 ft | 380 kts | 15° |
| 2026-05-03 23:47 | 35.92028 | -77.12073 | 23370 ft | 379 kts | 15° |
| 2026-05-03 23:47 | 35.94432 | -77.10759 | 22919 ft | 376 kts | 15° |
| 2026-05-03 23:48 | 35.96820 | -77.09455 | 22412 ft | 376 kts | 15° |
| 2026-05-03 23:48 | 35.99201 | -77.08152 | 21944 ft | 372 kts | 15° |
| 2026-05-03 23:48 | 36.01548 | -77.06864 | 21391 ft | 366 kts | 15° |
| 2026-05-03 23:48 | 36.03858 | -77.05597 | 20750 ft | 363 kts | 16° |
| 2026-05-03 23:49 | 36.06156 | -77.04337 | 20193 ft | 359 kts | 16° |
| 2026-05-03 23:49 | 36.08423 | -77.03093 | 19639 ft | 354 kts | 17° |
| 2026-05-03 23:49 | 36.10664 | -77.01863 | 19084 ft | 350 kts | 17° |
| 2026-05-03 23:49 | 36.12847 | -77.00665 | 18544 ft | 347 kts | 17° |
| 2026-05-03 23:50 | 36.15069 | -76.99443 | 17915 ft | 342 kts | 17° |
| 2026-05-03 23:50 | 36.16513 | -76.98649 | 17466 ft | 340 kts | 17° |
| 2026-05-03 23:50 | 36.19357 | -76.97085 | 16615 ft | 335 kts | 17° |
| 2026-05-03 23:50 | 36.21474 | -76.95920 | 15994 ft | 332 kts | 17° |
| 2026-05-03 23:51 | 36.23569 | -76.94766 | 15392 ft | 328 kts | 17° |
| 2026-05-03 23:51 | 36.25642 | -76.93623 | 14806 ft | 324 kts | 17° |
| 2026-05-03 23:51 | 36.27695 | -76.92491 | 14245 ft | 321 kts | 17° |
| 2026-05-03 23:51 | 36.29728 | -76.91369 | 13632 ft | 318 kts | 17° |
| 2026-05-03 23:52 | 36.31741 | -76.90258 | 13009 ft | 315 kts | 17° |
| 2026-05-03 23:52 | 36.33726 | -76.89162 | 12391 ft | 311 kts | 18° |
| 2026-05-03 23:52 | 36.35697 | -76.88072 | 11800 ft | 308 kts | 18° |
| 2026-05-03 23:52 | 36.37574 | -76.86792 | 11265 ft | 311 kts | 34° |
| 2026-05-03 23:53 | 36.39120 | -76.84917 | 11059 ft | 312 kts | 41° |
| 2026-05-03 23:53 | 36.40615 | -76.82965 | 10812 ft | 313 kts | 41° |
| 2026-05-03 23:53 | 36.42120 | -76.80997 | 10589 ft | 314 kts | 41° |
| 2026-05-03 23:53 | 36.43629 | -76.79035 | 10343 ft | 315 kts | 41° |
| 2026-05-03 23:54 | 36.45146 | -76.77075 | 10101 ft | 315 kts | 41° |
| 2026-05-03 23:54 | 36.46668 | -76.75115 | 9857 ft | 313 kts | 41° |
| 2026-05-03 23:54 | 36.48162 | -76.73194 | 9576 ft | 304 kts | 41° |
| 2026-05-03 23:54 | 36.49603 | -76.71342 | 9300 ft | 292 kts | 41° |
| 2026-05-03 23:55 | 36.51006 | -76.69542 | 9049 ft | 287 kts | 41° |
| 2026-05-03 23:55 | 36.52385 | -76.67774 | 8789 ft | 284 kts | 41° |
| 2026-05-03 23:55 | 36.53762 | -76.66044 | 8529 ft | 279 kts | 39° |
| 2026-05-03 23:55 | 36.55134 | -76.64393 | 8277 ft | 276 kts | 40° |
| 2026-05-03 23:56 | 36.56528 | -76.62781 | 8034 ft | 271 kts | 36° |
| 2026-05-03 23:56 | 36.57971 | -76.61275 | 7783 ft | 268 kts | 34° |
| 2026-05-03 23:56 | 36.59405 | -76.59804 | 7532 ft | 266 kts | 34° |
| 2026-05-03 23:56 | 36.60846 | -76.58337 | 7277 ft | 264 kts | 34° |
| 2026-05-03 23:57 | 36.62243 | -76.56922 | 7040 ft | 262 kts | 34° |
| 2026-05-03 23:57 | 36.63666 | -76.55487 | 6794 ft | 260 kts | 34° |
| 2026-05-03 23:57 | 36.65052 | -76.54097 | 6563 ft | 258 kts | 34° |
| 2026-05-03 23:57 | 36.66446 | -76.52701 | 6378 ft | 252 kts | 34° |
| 2026-05-03 23:58 | 36.67802 | -76.51352 | 6103 ft | 251 kts | 34° |
| 2026-05-03 23:58 | 36.69168 | -76.50008 | 5833 ft | 250 kts | 34° |
| 2026-05-03 23:58 | 36.70537 | -76.48685 | 5562 ft | 248 kts | 34° |
| 2026-05-03 23:58 | 36.71909 | -76.47378 | 5294 ft | 247 kts | 34° |
| 2026-05-03 23:59 | 36.73285 | -76.46089 | 5027 ft | 247 kts | 34° |
| 2026-05-03 23:59 | 36.74663 | -76.44819 | 4757 ft | 246 kts | 34° |
| 2026-05-03 23:59 | 36.76041 | -76.43560 | 4494 ft | 245 kts | 34° |
| 2026-05-03 23:59 | 36.77415 | -76.42312 | 4233 ft | 244 kts | 34° |
| 2026-05-04 00:00 | 36.78323 | -76.41488 | 4057 ft | 244 kts | 34° |
| 2026-05-04 00:00 | 36.79688 | -76.40248 | 3802 ft | 243 kts | 34° |
| 2026-05-04 00:00 | 36.81049 | -76.39013 | 3603 ft | 239 kts | 34° |
| 2026-05-04 00:00 | 36.82381 | -76.37804 | 3508 ft | 237 kts | 34° |
| 2026-05-04 00:01 | 36.83726 | -76.36584 | 3422 ft | 239 kts | 34° |
| 2026-05-04 00:01 | 36.85052 | -76.35385 | 3305 ft | 233 kts | 34° |
| 2026-05-04 00:01 | 36.86327 | -76.34232 | 3210 ft | 225 kts | 34° |
| 2026-05-04 00:01 | 36.87593 | -76.33087 | 3102 ft | 226 kts | 34° |
| 2026-05-04 00:02 | 36.88853 | -76.31945 | 3017 ft | 219 kts | 34° |
| 2026-05-04 00:02 | 36.90054 | -76.30854 | 2995 ft | 209 kts | 34° |
| 2026-05-04 00:02 | 36.91213 | -76.29802 | 3002 ft | 205 kts | 34° |
| 2026-05-04 00:02 | 36.92374 | -76.28746 | 3024 ft | 207 kts | 34° |
| 2026-05-04 00:03 | 36.93535 | -76.27678 | 3018 ft | 210 kts | 34° |
| 2026-05-04 00:03 | 36.94719 | -76.26588 | 3015 ft | 212 kts | 34° |
| 2026-05-04 00:03 | 36.95907 | -76.25497 | 3015 ft | 212 kts | 34° |
| 2026-05-04 00:03 | 36.97085 | -76.24414 | 3019 ft | 213 kts | 34° |
| 2026-05-04 00:04 | 36.98285 | -76.23310 | 3022 ft | 215 kts | 34° |
| 2026-05-04 00:04 | 36.99506 | -76.22188 | 3039 ft | 222 kts | 34° |
| 2026-05-04 00:04 | 37.00781 | -76.21025 | 3057 ft | 230 kts | 34° |
| 2026-05-04 00:04 | 37.02099 | -76.19826 | 3076 ft | 237 kts | 34° |
| 2026-05-04 00:05 | 37.03454 | -76.18594 | 3084 ft | 244 kts | 34° |
| 2026-05-04 00:05 | 37.04850 | -76.17328 | 3091 ft | 252 kts | 34° |
| 2026-05-04 00:05 | 37.06258 | -76.15972 | 3090 ft | 257 kts | 44° |
| 2026-05-04 00:05 | 37.07167 | -76.14067 | 3069 ft | 259 kts | 73° |
| 2026-05-04 00:06 | 37.07316 | -76.11836 | 3092 ft | 261 kts | 91° |
| 2026-05-04 00:06 | 37.07241 | -76.09569 | 3092 ft | 262 kts | 92° |
| 2026-05-04 00:06 | 37.07148 | -76.07294 | 3086 ft | 262 kts | 93° |
| 2026-05-04 00:06 | 37.07004 | -76.05021 | 3081 ft | 261 kts | 102° |
| 2026-05-04 00:07 | 37.06166 | -76.03060 | 3055 ft | 258 kts | 139° |
| 2026-05-04 00:07 | 37.04596 | -76.02097 | 3061 ft | 251 kts | 176° |
| 2026-05-04 00:07 | 37.02925 | -76.02473 | 3066 ft | 245 kts | 212° |
| 2026-05-04 00:07 | 37.01808 | -76.03990 | 3068 ft | 239 kts | 249° |
| 2026-05-04 00:08 | 37.01484 | -76.06027 | 2958 ft | 241 kts | 261° |
| 2026-05-04 00:08 | 37.00828 | -76.07909 | 2709 ft | 234 kts | 235° |
| 2026-05-04 00:08 | 36.99884 | -76.09506 | 2392 ft | 222 kts | 233° |
| 2026-05-04 00:08 | 36.98861 | -76.10817 | 2107 ft | 198 kts | 223° |
| 2026-05-04 00:09 | 36.97856 | -76.11854 | 1857 ft | 177 kts | 220° |
| 2026-05-04 00:09 | 36.96954 | -76.12727 | 1643 ft | 156 kts | 220° |
| 2026-05-04 00:09 | 36.96133 | -76.13522 | 1419 ft | 142 kts | 219° |
| 2026-05-04 00:09 | 36.95368 | -76.14264 | 1248 ft | 137 kts | 219° |
| 2026-05-04 00:10 | 36.94617 | -76.14991 | 1048 ft | 136 kts | 219° |
| 2026-05-04 00:10 | 36.93868 | -76.15721 | 879 ft | 137 kts | 220° |
| 2026-05-04 00:10 | 36.93111 | -76.16453 | 655 ft | 138 kts | 218° |
| 2026-05-04 00:10 | 36.92348 | -76.17183 | 486 ft | 138 kts | 219° |
| 2026-05-04 00:11 | 36.91589 | -76.17938 | 316 ft | 141 kts | 219° |
| 2026-05-04 00:11 | 36.90807 | -76.18681 | 114 ft | 141 kts | 217° |
| 2026-05-04 00:11 | 36.90068 | -76.19413 | 40 ft | 126 kts | 213° |
| 2026-05-04 00:11 | 36.89474 | -76.19972 | 39 ft | 88 kts | 218° |
| 2026-05-04 00:12 | 36.89105 | -76.20329 | 35 ft | 44 kts | 218° |
| 2026-05-04 00:12 | 36.88978 | -76.20452 | 34 ft | 0 kts | 218° |
| 2026-05-04 00:12 | 36.88966 | -76.20463 | 36 ft | 13 kts | 214° |